sensor_id;sensor_type;location;lat;lon;timestamp;P1;durP1;ratioP1;P2;durP2;ratioP2
30723;SDS011;17473;52.286;20.930;2024-01-15T00:00:29;14.33;;;7.27;;
30723;SDS011;17473;52.286;20.930;2024-01-15T00:02:56;12.23;;;6.50;;
30723;SDS011;17473;52.286;20.930;2024-01-15T00:05:23;9.30;;;6.70;;
30723;SDS011;17473;52.286;20.930;2024-01-15T00:07:50;11.97;;;7.00;;
30723;SDS011;17473;52.286;20.930;2024-01-15T00:10:17;13.43;;;7.33;;
30723;SDS011;17473;52.286;20.930;2024-01-15T00:12:44;9.73;;;6.30;;
30723;SDS011;17473;52.286;20.930;2024-01-15T00:15:11;11.60;;;7.20;;
30723;SDS011;17473;52.286;20.930;2024-01-15T00:17:38;14.03;;;6.77;;
30723;SDS011;17473;52.286;20.930;2024-01-15T00:20:05;15.10;;;7.60;;
30723;SDS011;17473;52.286;20.930;2024-01-15T00:22:33;13.40;;;7.53;;
30723;SDS011;17473;52.286;20.930;2024-01-15T00:25:02;12.17;;;7.50;;
30723;SDS011;17473;52.286;20.930;2024-01-15T00:27:29;11.27;;;6.97;;
30723;SDS011;17473;52.286;20.930;2024-01-15T00:29:56;14.03;;;8.00;;
30723;SDS011;17473;52.286;20.930;2024-01-15T00:32:23;13.40;;;7.93;;
30723;SDS011;17473;52.286;20.930;2024-01-15T00:34:50;17.17;;;8.60;;
30723;SDS011;17473;52.286;20.930;2024-01-15T00:37:17;13.13;;;7.37;;
30723;SDS011;17473;52.286;20.930;2024-01-15T00:39:44;13.57;;;8.17;;
30723;SDS011;17473;52.286;20.930;2024-01-15T00:42:11;14.07;;;8.00;;
30723;SDS011;17473;52.286;20.930;2024-01-15T00:44:39;14.10;;;8.50;;
30723;SDS011;17473;52.286;20.930;2024-01-15T00:47:05;13.80;;;8.40;;
30723;SDS011;17473;52.286;20.930;2024-01-15T00:49:32;13.60;;;7.73;;
30723;SDS011;17473;52.286;20.930;2024-01-15T00:51:59;14.90;;;8.10;;
30723;SDS011;17473;52.286;20.930;2024-01-15T00:54:26;14.43;;;7.40;;
30723;SDS011;17473;52.286;20.930;2024-01-15T00:56:53;12.20;;;8.13;;
30723;SDS011;17473;52.286;20.930;2024-01-15T00:59:21;15.77;;;8.57;;
30723;SDS011;17473;52.286;20.930;2024-01-15T01:01:48;14.97;;;8.00;;
30723;SDS011;17473;52.286;20.930;2024-01-15T01:04:15;13.33;;;8.20;;
30723;SDS011;17473;52.286;20.930;2024-01-15T01:06:43;14.60;;;8.33;;
30723;SDS011;17473;52.286;20.930;2024-01-15T01:09:10;14.43;;;8.07;;
30723;SDS011;17473;52.286;20.930;2024-01-15T01:11:37;15.73;;;7.87;;
30723;SDS011;17473;52.286;20.930;2024-01-15T01:14:03;15.30;;;8.07;;
30723;SDS011;17473;52.286;20.930;2024-01-15T01:16:31;14.10;;;8.10;;
30723;SDS011;17473;52.286;20.930;2024-01-15T01:19:05;11.90;;;7.90;;
30723;SDS011;17473;52.286;20.930;2024-01-15T01:21:34;14.30;;;8.97;;
30723;SDS011;17473;52.286;20.930;2024-01-15T01:24:01;14.57;;;8.40;;
30723;SDS011;17473;52.286;20.930;2024-01-15T01:26:28;17.00;;;8.67;;
30723;SDS011;17473;52.286;20.930;2024-01-15T01:28:54;15.47;;;8.73;;
30723;SDS011;17473;52.286;20.930;2024-01-15T01:31:21;16.37;;;8.83;;
30723;SDS011;17473;52.286;20.930;2024-01-15T01:33:50;14.10;;;8.13;;
30723;SDS011;17473;52.286;20.930;2024-01-15T01:36:17;14.17;;;9.00;;
30723;SDS011;17473;52.286;20.930;2024-01-15T01:38:44;11.87;;;7.77;;
30723;SDS011;17473;52.286;20.930;2024-01-15T01:41:11;11.83;;;7.97;;
30723;SDS011;17473;52.286;20.930;2024-01-15T01:43:38;13.63;;;7.90;;
30723;SDS011;17473;52.286;20.930;2024-01-15T01:46:04;13.13;;;8.37;;
30723;SDS011;17473;52.286;20.930;2024-01-15T01:48:31;15.20;;;9.20;;
30723;SDS011;17473;52.286;20.930;2024-01-15T01:51:00;15.23;;;9.23;;
30723;SDS011;17473;52.286;20.930;2024-01-15T01:53:29;16.77;;;9.17;;
30723;SDS011;17473;52.286;20.930;2024-01-15T01:55:56;16.20;;;9.47;;
30723;SDS011;17473;52.286;20.930;2024-01-15T01:58:23;16.27;;;8.20;;
30723;SDS011;17473;52.286;20.930;2024-01-15T02:00:51;16.00;;;9.60;;
30723;SDS011;17473;52.286;20.930;2024-01-15T02:03:19;16.53;;;8.97;;
30723;SDS011;17473;52.286;20.930;2024-01-15T02:05:46;15.80;;;9.30;;
30723;SDS011;17473;52.286;20.930;2024-01-15T02:08:16;14.80;;;8.93;;
30723;SDS011;17473;52.286;20.930;2024-01-15T02:10:43;17.90;;;10.63;;
30723;SDS011;17473;52.286;20.930;2024-01-15T02:13:10;15.97;;;9.03;;
30723;SDS011;17473;52.286;20.930;2024-01-15T02:15:37;16.50;;;9.73;;
30723;SDS011;17473;52.286;20.930;2024-01-15T02:18:04;16.07;;;8.63;;
30723;SDS011;17473;52.286;20.930;2024-01-15T02:20:33;16.83;;;9.57;;
30723;SDS011;17473;52.286;20.930;2024-01-15T02:23:05;18.67;;;9.37;;
30723;SDS011;17473;52.286;20.930;2024-01-15T02:25:41;13.63;;;8.60;;
30723;SDS011;17473;52.286;20.930;2024-01-15T02:28:11;16.90;;;9.43;;
30723;SDS011;17473;52.286;20.930;2024-01-15T02:33:15;15.83;;;10.10;;
30723;SDS011;17473;52.286;20.930;2024-01-15T02:36:15;16.90;;;10.10;;
30723;SDS011;17473;52.286;20.930;2024-01-15T02:38:59;17.73;;;9.37;;
30723;SDS011;17473;52.286;20.930;2024-01-15T02:41:45;17.37;;;10.17;;
30723;SDS011;17473;52.286;20.930;2024-01-15T02:45:00;16.13;;;9.40;;
30723;SDS011;17473;52.286;20.930;2024-01-15T02:48:02;16.73;;;9.90;;
30723;SDS011;17473;52.286;20.930;2024-01-15T03:00:53;19.43;;;9.97;;
30723;SDS011;17473;52.286;20.930;2024-01-15T03:04:31;16.93;;;9.77;;
30723;SDS011;17473;52.286;20.930;2024-01-15T03:19:34;19.00;;;9.80;;
30723;SDS011;17473;52.286;20.930;2024-01-15T03:36:48;18.20;;;9.93;;
30723;SDS011;17473;52.286;20.930;2024-01-15T03:39:16;17.70;;;10.50;;
30723;SDS011;17473;52.286;20.930;2024-01-15T03:41:43;15.83;;;9.53;;
30723;SDS011;17473;52.286;20.930;2024-01-15T03:44:10;16.87;;;10.50;;
30723;SDS011;17473;52.286;20.930;2024-01-15T03:46:37;16.00;;;9.30;;
30723;SDS011;17473;52.286;20.930;2024-01-15T03:49:04;15.73;;;9.33;;
30723;SDS011;17473;52.286;20.930;2024-01-15T03:51:31;15.50;;;8.97;;
30723;SDS011;17473;52.286;20.930;2024-01-15T03:53:58;17.60;;;10.13;;
30723;SDS011;17473;52.286;20.930;2024-01-15T03:56:25;16.03;;;10.07;;
30723;SDS011;17473;52.286;20.930;2024-01-15T03:58:52;17.57;;;9.60;;
30723;SDS011;17473;52.286;20.930;2024-01-15T04:01:19;17.03;;;9.40;;
30723;SDS011;17473;52.286;20.930;2024-01-15T04:03:46;15.87;;;8.97;;
30723;SDS011;17473;52.286;20.930;2024-01-15T04:06:12;17.03;;;10.17;;
30723;SDS011;17473;52.286;20.930;2024-01-15T04:08:39;16.50;;;10.40;;
30723;SDS011;17473;52.286;20.930;2024-01-15T04:11:06;17.97;;;9.93;;
30723;SDS011;17473;52.286;20.930;2024-01-15T04:13:33;21.30;;;10.10;;
30723;SDS011;17473;52.286;20.930;2024-01-15T04:16:00;17.13;;;9.57;;
30723;SDS011;17473;52.286;20.930;2024-01-15T04:18:27;16.73;;;8.70;;
30723;SDS011;17473;52.286;20.930;2024-01-15T04:20:54;15.50;;;9.90;;
30723;SDS011;17473;52.286;20.930;2024-01-15T04:23:21;18.63;;;9.20;;
30723;SDS011;17473;52.286;20.930;2024-01-15T04:25:48;18.07;;;10.20;;
30723;SDS011;17473;52.286;20.930;2024-01-15T04:28:15;15.10;;;8.70;;
30723;SDS011;17473;52.286;20.930;2024-01-15T04:30:42;15.57;;;9.33;;
30723;SDS011;17473;52.286;20.930;2024-01-15T04:33:09;17.57;;;9.60;;
30723;SDS011;17473;52.286;20.930;2024-01-15T04:35:36;17.83;;;9.37;;
30723;SDS011;17473;52.286;20.930;2024-01-15T04:38:04;13.27;;;8.23;;
30723;SDS011;17473;52.286;20.930;2024-01-15T04:40:31;16.47;;;9.20;;
30723;SDS011;17473;52.286;20.930;2024-01-15T04:42:58;17.67;;;9.13;;
30723;SDS011;17473;52.286;20.930;2024-01-15T04:45:25;15.97;;;9.33;;
30723;SDS011;17473;52.286;20.930;2024-01-15T04:47:55;12.67;;;7.93;;
30723;SDS011;17473;52.286;20.930;2024-01-15T04:50:23;16.80;;;9.37;;
30723;SDS011;17473;52.286;20.930;2024-01-15T04:52:50;15.27;;;8.93;;
30723;SDS011;17473;52.286;20.930;2024-01-15T04:55:17;15.47;;;8.57;;
30723;SDS011;17473;52.286;20.930;2024-01-15T04:57:44;17.23;;;8.67;;
30723;SDS011;17473;52.286;20.930;2024-01-15T05:00:11;11.53;;;7.47;;
30723;SDS011;17473;52.286;20.930;2024-01-15T05:02:39;12.43;;;8.27;;
30723;SDS011;17473;52.286;20.930;2024-01-15T05:05:06;14.97;;;7.70;;
30723;SDS011;17473;52.286;20.930;2024-01-15T05:07:33;14.80;;;8.10;;
30723;SDS011;17473;52.286;20.930;2024-01-15T05:10:01;14.17;;;8.37;;
30723;SDS011;17473;52.286;20.930;2024-01-15T05:12:28;15.80;;;8.80;;
30723;SDS011;17473;52.286;20.930;2024-01-15T05:14:55;13.07;;;8.33;;
30723;SDS011;17473;52.286;20.930;2024-01-15T05:17:21;12.93;;;7.27;;
30723;SDS011;17473;52.286;20.930;2024-01-15T05:19:48;13.57;;;8.30;;
30723;SDS011;17473;52.286;20.930;2024-01-15T05:22:15;13.33;;;8.40;;
30723;SDS011;17473;52.286;20.930;2024-01-15T05:24:42;17.17;;;8.70;;
30723;SDS011;17473;52.286;20.930;2024-01-15T05:27:09;12.87;;;8.47;;
30723;SDS011;17473;52.286;20.930;2024-01-15T05:29:36;20.40;;;9.43;;
30723;SDS011;17473;52.286;20.930;2024-01-15T05:32:03;13.53;;;8.87;;
30723;SDS011;17473;52.286;20.930;2024-01-15T05:34:30;12.90;;;8.53;;
30723;SDS011;17473;52.286;20.930;2024-01-15T05:36:57;12.93;;;7.97;;
30723;SDS011;17473;52.286;20.930;2024-01-15T05:39:24;14.67;;;8.27;;
30723;SDS011;17473;52.286;20.930;2024-01-15T05:41:51;17.07;;;8.17;;
30723;SDS011;17473;52.286;20.930;2024-01-15T05:44:18;16.30;;;9.00;;
30723;SDS011;17473;52.286;20.930;2024-01-15T05:46:45;13.10;;;8.40;;
30723;SDS011;17473;52.286;20.930;2024-01-15T05:49:12;14.77;;;7.93;;
30723;SDS011;17473;52.286;20.930;2024-01-15T05:51:39;16.07;;;9.43;;
30723;SDS011;17473;52.286;20.930;2024-01-15T05:54:06;12.50;;;7.80;;
30723;SDS011;17473;52.286;20.930;2024-01-15T05:56:33;16.63;;;8.70;;
30723;SDS011;17473;52.286;20.930;2024-01-15T05:59:00;13.97;;;8.33;;
30723;SDS011;17473;52.286;20.930;2024-01-15T06:01:28;15.23;;;8.60;;
30723;SDS011;17473;52.286;20.930;2024-01-15T06:03:55;12.90;;;8.40;;
30723;SDS011;17473;52.286;20.930;2024-01-15T06:06:22;13.27;;;8.50;;
30723;SDS011;17473;52.286;20.930;2024-01-15T06:08:48;15.73;;;8.90;;
30723;SDS011;17473;52.286;20.930;2024-01-15T06:11:15;17.30;;;8.60;;
30723;SDS011;17473;52.286;20.930;2024-01-15T06:13:42;14.23;;;9.00;;
30723;SDS011;17473;52.286;20.930;2024-01-15T06:16:15;19.87;;;9.63;;
30723;SDS011;17473;52.286;20.930;2024-01-15T06:18:43;25.13;;;9.57;;
30723;SDS011;17473;52.286;20.930;2024-01-15T06:21:10;17.50;;;9.83;;
30723;SDS011;17473;52.286;20.930;2024-01-15T06:23:39;13.27;;;8.23;;
30723;SDS011;17473;52.286;20.930;2024-01-15T06:26:06;15.47;;;8.80;;
30723;SDS011;17473;52.286;20.930;2024-01-15T06:28:33;16.07;;;8.50;;
30723;SDS011;17473;52.286;20.930;2024-01-15T06:31:00;12.57;;;7.93;;
30723;SDS011;17473;52.286;20.930;2024-01-15T06:33:27;15.23;;;8.50;;
30723;SDS011;17473;52.286;20.930;2024-01-15T06:35:54;15.27;;;8.47;;
30723;SDS011;17473;52.286;20.930;2024-01-15T06:38:21;12.67;;;8.33;;
30723;SDS011;17473;52.286;20.930;2024-01-15T06:40:48;17.07;;;8.63;;
30723;SDS011;17473;52.286;20.930;2024-01-15T06:43:18;13.30;;;8.13;;
30723;SDS011;17473;52.286;20.930;2024-01-15T06:45:45;12.00;;;8.17;;
30723;SDS011;17473;52.286;20.930;2024-01-15T06:48:12;15.07;;;9.10;;
30723;SDS011;17473;52.286;20.930;2024-01-15T06:50:43;19.27;;;8.90;;
30723;SDS011;17473;52.286;20.930;2024-01-15T06:53:10;16.97;;;8.60;;
30723;SDS011;17473;52.286;20.930;2024-01-15T06:55:37;14.10;;;8.67;;
30723;SDS011;17473;52.286;20.930;2024-01-15T06:58:05;13.57;;;8.93;;
30723;SDS011;17473;52.286;20.930;2024-01-15T07:00:32;13.70;;;8.63;;
30723;SDS011;17473;52.286;20.930;2024-01-15T07:02:59;19.27;;;9.13;;
30723;SDS011;17473;52.286;20.930;2024-01-15T07:05:26;15.23;;;8.90;;
30723;SDS011;17473;52.286;20.930;2024-01-15T07:07:53;16.83;;;8.87;;
30723;SDS011;17473;52.286;20.930;2024-01-15T07:10:20;14.60;;;8.77;;
30723;SDS011;17473;52.286;20.930;2024-01-15T07:12:47;14.00;;;9.03;;
30723;SDS011;17473;52.286;20.930;2024-01-15T07:15:14;12.80;;;8.97;;
30723;SDS011;17473;52.286;20.930;2024-01-15T07:17:42;16.70;;;9.90;;
30723;SDS011;17473;52.286;20.930;2024-01-15T07:20:09;13.50;;;8.53;;
30723;SDS011;17473;52.286;20.930;2024-01-15T07:22:36;16.17;;;9.80;;
30723;SDS011;17473;52.286;20.930;2024-01-15T07:25:04;16.17;;;9.20;;
30723;SDS011;17473;52.286;20.930;2024-01-15T07:27:32;13.13;;;8.03;;
30723;SDS011;17473;52.286;20.930;2024-01-15T07:29:59;14.53;;;9.00;;
30723;SDS011;17473;52.286;20.930;2024-01-15T07:32:28;14.93;;;9.03;;
30723;SDS011;17473;52.286;20.930;2024-01-15T07:34:55;15.00;;;8.00;;
30723;SDS011;17473;52.286;20.930;2024-01-15T07:37:22;14.83;;;8.67;;
30723;SDS011;17473;52.286;20.930;2024-01-15T07:39:49;15.50;;;8.03;;
30723;SDS011;17473;52.286;20.930;2024-01-15T07:42:16;13.93;;;8.90;;
30723;SDS011;17473;52.286;20.930;2024-01-15T07:44:43;15.93;;;9.07;;
30723;SDS011;17473;52.286;20.930;2024-01-15T07:47:11;13.93;;;8.37;;
30723;SDS011;17473;52.286;20.930;2024-01-15T07:49:38;15.40;;;9.07;;
30723;SDS011;17473;52.286;20.930;2024-01-15T07:52:06;15.03;;;8.43;;
30723;SDS011;17473;52.286;20.930;2024-01-15T07:54:33;14.83;;;8.23;;
30723;SDS011;17473;52.286;20.930;2024-01-15T07:57:01;11.90;;;7.73;;
30723;SDS011;17473;52.286;20.930;2024-01-15T07:59:31;14.77;;;8.43;;
30723;SDS011;17473;52.286;20.930;2024-01-15T08:01:59;13.83;;;8.67;;
30723;SDS011;17473;52.286;20.930;2024-01-15T08:04:26;13.13;;;8.23;;
30723;SDS011;17473;52.286;20.930;2024-01-15T08:06:54;12.23;;;7.93;;
30723;SDS011;17473;52.286;20.930;2024-01-15T08:09:21;16.23;;;8.53;;
30723;SDS011;17473;52.286;20.930;2024-01-15T08:11:48;17.13;;;8.67;;
30723;SDS011;17473;52.286;20.930;2024-01-15T08:14:18;13.50;;;8.43;;
30723;SDS011;17473;52.286;20.930;2024-01-15T08:16:45;14.57;;;7.57;;
30723;SDS011;17473;52.286;20.930;2024-01-15T08:19:12;13.60;;;8.07;;
30723;SDS011;17473;52.286;20.930;2024-01-15T08:21:41;12.83;;;7.97;;
30723;SDS011;17473;52.286;20.930;2024-01-15T08:24:08;12.90;;;7.93;;
30723;SDS011;17473;52.286;20.930;2024-01-15T08:26:37;13.00;;;7.83;;
30723;SDS011;17473;52.286;20.930;2024-01-15T08:29:04;10.90;;;7.17;;
30723;SDS011;17473;52.286;20.930;2024-01-15T08:31:31;13.33;;;6.97;;
30723;SDS011;17473;52.286;20.930;2024-01-15T08:33:58;13.40;;;7.53;;
30723;SDS011;17473;52.286;20.930;2024-01-15T08:36:28;11.17;;;6.97;;
30723;SDS011;17473;52.286;20.930;2024-01-15T08:38:57;10.73;;;6.73;;
30723;SDS011;17473;52.286;20.930;2024-01-15T08:41:24;11.23;;;6.93;;
30723;SDS011;17473;52.286;20.930;2024-01-15T08:43:51;10.83;;;7.10;;
30723;SDS011;17473;52.286;20.930;2024-01-15T08:46:19;9.87;;;5.93;;
30723;SDS011;17473;52.286;20.930;2024-01-15T08:48:46;12.07;;;7.10;;
30723;SDS011;17473;52.286;20.930;2024-01-15T08:51:13;10.67;;;6.43;;
30723;SDS011;17473;52.286;20.930;2024-01-15T08:53:40;10.70;;;6.30;;
30723;SDS011;17473;52.286;20.930;2024-01-15T08:56:07;11.20;;;6.87;;
30723;SDS011;17473;52.286;20.930;2024-01-15T08:58:35;9.03;;;6.13;;
30723;SDS011;17473;52.286;20.930;2024-01-15T09:01:01;9.17;;;6.20;;
30723;SDS011;17473;52.286;20.930;2024-01-15T09:03:29;8.97;;;5.90;;
30723;SDS011;17473;52.286;20.930;2024-01-15T09:05:56;12.57;;;7.40;;
30723;SDS011;17473;52.286;20.930;2024-01-15T09:08:24;9.33;;;6.07;;
30723;SDS011;17473;52.286;20.930;2024-01-15T09:10:51;13.27;;;7.80;;
30723;SDS011;17473;52.286;20.930;2024-01-15T09:13:17;9.37;;;6.53;;
30723;SDS011;17473;52.286;20.930;2024-01-15T09:15:44;11.10;;;6.57;;
30723;SDS011;17473;52.286;20.930;2024-01-15T09:18:11;11.17;;;6.93;;
30723;SDS011;17473;52.286;20.930;2024-01-15T09:20:38;11.27;;;6.80;;
30723;SDS011;17473;52.286;20.930;2024-01-15T09:23:06;12.83;;;6.87;;
30723;SDS011;17473;52.286;20.930;2024-01-15T09:25:33;12.73;;;6.57;;
30723;SDS011;17473;52.286;20.930;2024-01-15T09:28:00;10.17;;;6.17;;
30723;SDS011;17473;52.286;20.930;2024-01-15T09:30:28;9.43;;;6.10;;
30723;SDS011;17473;52.286;20.930;2024-01-15T09:32:55;10.53;;;6.60;;
30723;SDS011;17473;52.286;20.930;2024-01-15T09:35:23;10.70;;;6.57;;
30723;SDS011;17473;52.286;20.930;2024-01-15T09:37:50;11.93;;;6.30;;
30723;SDS011;17473;52.286;20.930;2024-01-15T09:40:17;11.50;;;6.40;;
30723;SDS011;17473;52.286;20.930;2024-01-15T09:42:46;12.03;;;5.77;;
30723;SDS011;17473;52.286;20.930;2024-01-15T09:45:14;11.10;;;5.80;;
30723;SDS011;17473;52.286;20.930;2024-01-15T09:47:41;8.60;;;5.77;;
30723;SDS011;17473;52.286;20.930;2024-01-15T09:50:12;8.23;;;5.57;;
30723;SDS011;17473;52.286;20.930;2024-01-15T09:52:40;10.93;;;6.03;;
30723;SDS011;17473;52.286;20.930;2024-01-15T09:55:08;9.87;;;6.33;;
30723;SDS011;17473;52.286;20.930;2024-01-15T09:57:36;11.10;;;6.07;;
30723;SDS011;17473;52.286;20.930;2024-01-15T10:00:04;10.77;;;4.93;;
30723;SDS011;17473;52.286;20.930;2024-01-15T10:02:33;10.63;;;5.47;;
30723;SDS011;17473;52.286;20.930;2024-01-15T10:05:00;11.93;;;4.80;;
30723;SDS011;17473;52.286;20.930;2024-01-15T10:07:27;10.60;;;4.97;;
30723;SDS011;17473;52.286;20.930;2024-01-15T10:09:56;9.50;;;5.00;;
30723;SDS011;17473;52.286;20.930;2024-01-15T10:12:23;9.63;;;5.83;;
30723;SDS011;17473;52.286;20.930;2024-01-15T10:14:50;11.80;;;5.37;;
30723;SDS011;17473;52.286;20.930;2024-01-15T10:17:17;10.30;;;4.83;;
30723;SDS011;17473;52.286;20.930;2024-01-15T10:19:45;11.27;;;5.40;;
30723;SDS011;17473;52.286;20.930;2024-01-15T10:22:16;9.13;;;4.67;;
30723;SDS011;17473;52.286;20.930;2024-01-15T10:24:45;7.87;;;4.53;;
30723;SDS011;17473;52.286;20.930;2024-01-15T10:27:14;11.07;;;4.97;;
30723;SDS011;17473;52.286;20.930;2024-01-15T10:29:42;7.63;;;4.40;;
30723;SDS011;17473;52.286;20.930;2024-01-15T10:32:10;9.50;;;4.90;;
30723;SDS011;17473;52.286;20.930;2024-01-15T10:34:38;9.23;;;5.00;;
30723;SDS011;17473;52.286;20.930;2024-01-15T10:37:08;9.23;;;4.73;;
30723;SDS011;17473;52.286;20.930;2024-01-15T10:39:35;9.03;;;5.43;;
30723;SDS011;17473;52.286;20.930;2024-01-15T10:42:03;11.50;;;5.47;;
30723;SDS011;17473;52.286;20.930;2024-01-15T10:44:30;9.83;;;5.37;;
30723;SDS011;17473;52.286;20.930;2024-01-15T10:46:57;11.27;;;5.70;;
30723;SDS011;17473;52.286;20.930;2024-01-15T10:49:24;12.03;;;5.80;;
30723;SDS011;17473;52.286;20.930;2024-01-15T10:51:58;10.63;;;5.43;;
30723;SDS011;17473;52.286;20.930;2024-01-15T10:54:27;9.83;;;5.47;;
30723;SDS011;17473;52.286;20.930;2024-01-15T10:56:56;12.50;;;6.33;;
30723;SDS011;17473;52.286;20.930;2024-01-15T10:59:23;9.13;;;5.60;;
30723;SDS011;17473;52.286;20.930;2024-01-15T11:01:51;13.37;;;5.97;;
30723;SDS011;17473;52.286;20.930;2024-01-15T11:04:23;14.77;;;5.93;;
30723;SDS011;17473;52.286;20.930;2024-01-15T11:06:53;11.10;;;5.87;;
30723;SDS011;17473;52.286;20.930;2024-01-15T11:09:22;11.40;;;5.87;;
30723;SDS011;17473;52.286;20.930;2024-01-15T11:11:52;10.60;;;5.80;;
30723;SDS011;17473;52.286;20.930;2024-01-15T11:14:38;13.27;;;6.33;;
30723;SDS011;17473;52.286;20.930;2024-01-15T11:17:06;12.30;;;6.27;;
30723;SDS011;17473;52.286;20.930;2024-01-15T11:25:03;11.23;;;5.27;;
30723;SDS011;17473;52.286;20.930;2024-01-15T11:27:40;9.60;;;5.63;;
30723;SDS011;17473;52.286;20.930;2024-01-15T11:30:11;11.47;;;6.10;;
30723;SDS011;17473;52.286;20.930;2024-01-15T11:32:39;12.67;;;6.10;;
30723;SDS011;17473;52.286;20.930;2024-01-15T11:35:10;12.47;;;5.13;;
30723;SDS011;17473;52.286;20.930;2024-01-15T11:37:59;11.43;;;6.20;;
30723;SDS011;17473;52.286;20.930;2024-01-15T11:42:59;11.70;;;5.27;;
30723;SDS011;17473;52.286;20.930;2024-01-15T11:45:26;16.07;;;5.80;;
30723;SDS011;17473;52.286;20.930;2024-01-15T11:50:47;8.87;;;5.17;;
30723;SDS011;17473;52.286;20.930;2024-01-15T11:53:17;13.70;;;5.57;;
30723;SDS011;17473;52.286;20.930;2024-01-15T11:55:47;12.93;;;5.63;;
30723;SDS011;17473;52.286;20.930;2024-01-15T11:58:15;9.77;;;4.53;;
30723;SDS011;17473;52.286;20.930;2024-01-15T12:00:43;11.67;;;5.40;;
30723;SDS011;17473;52.286;20.930;2024-01-15T12:03:11;12.80;;;5.70;;
30723;SDS011;17473;52.286;20.930;2024-01-15T12:05:39;14.97;;;5.73;;
30723;SDS011;17473;52.286;20.930;2024-01-15T12:08:06;11.70;;;5.70;;
30723;SDS011;17473;52.286;20.930;2024-01-15T12:10:37;11.63;;;5.50;;
30723;SDS011;17473;52.286;20.930;2024-01-15T12:13:13;11.87;;;5.67;;
30723;SDS011;17473;52.286;20.930;2024-01-15T12:15:47;13.67;;;5.73;;
30723;SDS011;17473;52.286;20.930;2024-01-15T12:18:15;10.10;;;5.13;;
30723;SDS011;17473;52.286;20.930;2024-01-15T12:20:44;13.90;;;5.17;;
30723;SDS011;17473;52.286;20.930;2024-01-15T12:23:15;13.53;;;6.47;;
30723;SDS011;17473;52.286;20.930;2024-01-15T12:25:44;9.10;;;5.20;;
30723;SDS011;17473;52.286;20.930;2024-01-15T12:28:11;11.27;;;5.67;;
30723;SDS011;17473;52.286;20.930;2024-01-15T12:30:38;11.87;;;5.63;;
30723;SDS011;17473;52.286;20.930;2024-01-15T12:33:06;11.57;;;4.97;;
30723;SDS011;17473;52.286;20.930;2024-01-15T12:35:36;11.10;;;5.30;;
30723;SDS011;17473;52.286;20.930;2024-01-15T12:38:03;11.17;;;5.67;;
30723;SDS011;17473;52.286;20.930;2024-01-15T12:40:32;13.50;;;6.80;;
30723;SDS011;17473;52.286;20.930;2024-01-15T12:43:04;10.57;;;6.03;;
30723;SDS011;17473;52.286;20.930;2024-01-15T12:45:32;13.97;;;6.53;;
30723;SDS011;17473;52.286;20.930;2024-01-15T12:48:02;14.43;;;6.47;;
30723;SDS011;17473;52.286;20.930;2024-01-15T12:50:30;11.93;;;6.60;;
30723;SDS011;17473;52.286;20.930;2024-01-15T12:52:57;14.93;;;7.20;;
30723;SDS011;17473;52.286;20.930;2024-01-15T12:55:26;12.03;;;6.23;;
30723;SDS011;17473;52.286;20.930;2024-01-15T12:57:53;15.43;;;7.90;;
30723;SDS011;17473;52.286;20.930;2024-01-15T13:00:21;13.20;;;7.50;;
30723;SDS011;17473;52.286;20.930;2024-01-15T13:02:49;14.60;;;6.87;;
30723;SDS011;17473;52.286;20.930;2024-01-15T13:05:16;13.17;;;6.30;;
30723;SDS011;17473;52.286;20.930;2024-01-15T13:07:44;17.03;;;7.30;;
30723;SDS011;17473;52.286;20.930;2024-01-15T13:10:11;11.57;;;6.97;;
30723;SDS011;17473;52.286;20.930;2024-01-15T13:12:39;15.70;;;7.37;;
30723;SDS011;17473;52.286;20.930;2024-01-15T13:15:07;13.20;;;6.33;;
30723;SDS011;17473;52.286;20.930;2024-01-15T13:17:40;10.60;;;5.77;;
30723;SDS011;17473;52.286;20.930;2024-01-15T13:20:08;10.93;;;6.03;;
30723;SDS011;17473;52.286;20.930;2024-01-15T13:22:37;10.60;;;5.50;;
30723;SDS011;17473;52.286;20.930;2024-01-15T13:25:06;12.43;;;6.33;;
30723;SDS011;17473;52.286;20.930;2024-01-15T13:27:35;10.33;;;5.57;;
30723;SDS011;17473;52.286;20.930;2024-01-15T13:30:04;11.83;;;5.90;;
30723;SDS011;17473;52.286;20.930;2024-01-15T13:32:33;10.57;;;5.87;;
30723;SDS011;17473;52.286;20.930;2024-01-15T13:35:01;20.13;;;6.97;;
30723;SDS011;17473;52.286;20.930;2024-01-15T13:37:29;11.40;;;6.60;;
30723;SDS011;17473;52.286;20.930;2024-01-15T13:39:56;12.37;;;5.97;;
30723;SDS011;17473;52.286;20.930;2024-01-15T13:42:23;11.63;;;6.43;;
30723;SDS011;17473;52.286;20.930;2024-01-15T13:44:50;11.23;;;6.27;;
30723;SDS011;17473;52.286;20.930;2024-01-15T13:47:17;14.10;;;6.27;;
30723;SDS011;17473;52.286;20.930;2024-01-15T13:49:44;12.27;;;6.40;;
30723;SDS011;17473;52.286;20.930;2024-01-15T13:52:12;13.23;;;6.83;;
30723;SDS011;17473;52.286;20.930;2024-01-15T13:54:39;12.90;;;6.73;;
30723;SDS011;17473;52.286;20.930;2024-01-15T13:57:16;12.83;;;6.40;;
30723;SDS011;17473;52.286;20.930;2024-01-15T13:59:44;13.67;;;6.33;;
30723;SDS011;17473;52.286;20.930;2024-01-15T14:02:11;10.23;;;5.77;;
30723;SDS011;17473;52.286;20.930;2024-01-15T14:04:40;12.60;;;6.23;;
30723;SDS011;17473;52.286;20.930;2024-01-15T14:07:08;11.67;;;6.13;;
30723;SDS011;17473;52.286;20.930;2024-01-15T14:09:34;13.87;;;5.97;;
30723;SDS011;17473;52.286;20.930;2024-01-15T14:12:01;14.63;;;7.87;;
30723;SDS011;17473;52.286;20.930;2024-01-15T14:14:28;13.73;;;6.37;;
30723;SDS011;17473;52.286;20.930;2024-01-15T14:16:55;13.33;;;6.73;;
30723;SDS011;17473;52.286;20.930;2024-01-15T14:19:23;15.03;;;7.03;;
30723;SDS011;17473;52.286;20.930;2024-01-15T14:21:50;17.50;;;6.30;;
30723;SDS011;17473;52.286;20.930;2024-01-15T14:24:17;13.80;;;7.30;;
30723;SDS011;17473;52.286;20.930;2024-01-15T14:26:45;14.70;;;7.50;;
30723;SDS011;17473;52.286;20.930;2024-01-15T14:29:12;16.80;;;7.33;;
30723;SDS011;17473;52.286;20.930;2024-01-15T14:31:39;12.97;;;6.53;;
30723;SDS011;17473;52.286;20.930;2024-01-15T14:34:06;12.20;;;6.80;;
30723;SDS011;17473;52.286;20.930;2024-01-15T14:36:34;14.43;;;6.90;;
30723;SDS011;17473;52.286;20.930;2024-01-15T14:39:01;15.13;;;7.23;;
30723;SDS011;17473;52.286;20.930;2024-01-15T14:41:29;15.57;;;7.23;;
30723;SDS011;17473;52.286;20.930;2024-01-15T14:43:56;20.97;;;7.47;;
30723;SDS011;17473;52.286;20.930;2024-01-15T14:46:24;16.40;;;6.97;;
30723;SDS011;17473;52.286;20.930;2024-01-15T14:48:50;18.17;;;7.40;;
30723;SDS011;17473;52.286;20.930;2024-01-15T14:51:17;13.60;;;6.87;;
30723;SDS011;17473;52.286;20.930;2024-01-15T14:53:44;16.47;;;6.77;;
30723;SDS011;17473;52.286;20.930;2024-01-15T14:56:11;14.93;;;7.60;;
30723;SDS011;17473;52.286;20.930;2024-01-15T14:58:42;13.77;;;6.87;;
30723;SDS011;17473;52.286;20.930;2024-01-15T15:01:09;18.47;;;7.00;;
30723;SDS011;17473;52.286;20.930;2024-01-15T15:03:36;16.60;;;7.53;;
30723;SDS011;17473;52.286;20.930;2024-01-15T15:06:03;16.97;;;7.27;;
30723;SDS011;17473;52.286;20.930;2024-01-15T15:08:31;15.40;;;6.37;;
30723;SDS011;17473;52.286;20.930;2024-01-15T15:10:58;13.87;;;7.47;;
30723;SDS011;17473;52.286;20.930;2024-01-15T15:13:25;14.37;;;7.70;;
30723;SDS011;17473;52.286;20.930;2024-01-15T15:16:09;14.63;;;6.73;;
30723;SDS011;17473;52.286;20.930;2024-01-15T15:18:37;14.57;;;6.93;;